sensor_id;sensor_type;location;lat;lon;timestamp;pressure;altitude;pressure_sealevel;temperature;humidity
57000;BME280;42891;50.006;21.964;2023-04-27T00:02:26;50930.56;;;-146.02;47.57
57000;BME280;42891;50.006;21.964;2023-04-27T00:06:26;50900.50;;;-146.02;47.46
57000;BME280;42891;50.006;21.964;2023-04-27T00:10:27;50886.47;;;-146.02;47.41
57000;BME280;42891;50.006;21.964;2023-04-27T00:14:27;50892.47;;;-146.02;47.34
57000;BME280;42891;50.006;21.964;2023-04-27T00:18:31;50858.41;;;-146.02;47.03
57000;BME280;42891;50.006;21.964;2023-04-27T00:22:32;50854.41;;;-146.02;47.34
57000;BME280;42891;50.006;21.964;2023-04-27T00:26:32;50898.50;;;-146.02;47.10
57000;BME280;42891;50.006;21.964;2023-04-27T00:30:32;50920.53;;;-146.02;47.53
57000;BME280;42891;50.006;21.964;2023-04-27T00:34:33;50852.41;;;-146.02;47.66
57000;BME280;42891;50.006;21.964;2023-04-27T00:38:33;50860.44;;;-146.02;48.29
57000;BME280;42891;50.006;21.964;2023-04-27T00:42:34;50942.56;;;-146.02;48.19
57000;BME280;42891;50.006;21.964;2023-04-27T00:46:35;50912.53;;;-146.02;48.48
57000;BME280;42891;50.006;21.964;2023-04-27T00:50:36;50858.41;;;-146.02;48.67
57000;BME280;42891;50.006;21.964;2023-04-27T00:54:37;50882.47;;;-146.02;49.05
57000;BME280;42891;50.006;21.964;2023-04-27T00:58:38;50892.47;;;-146.02;49.29
57000;BME280;42891;50.006;21.964;2023-04-27T01:02:39;50896.50;;;-146.02;49.73
57000;BME280;42891;50.006;21.964;2023-04-27T01:06:39;50912.53;;;-146.02;49.83
57000;BME280;42891;50.006;21.964;2023-04-27T01:10:39;50922.53;;;-146.02;50.01
57000;BME280;42891;50.006;21.964;2023-04-27T01:14:40;50902.50;;;-146.02;50.21
57000;BME280;42891;50.006;21.964;2023-04-27T01:18:40;50864.44;;;-146.02;50.22
57000;BME280;42891;50.006;21.964;2023-04-27T01:23:53;50880.47;;;-146.02;50.39
57000;BME280;42891;50.006;21.964;2023-04-27T01:27:54;50884.47;;;-146.02;50.49
57000;BME280;42891;50.006;21.964;2023-04-27T01:31:55;50862.44;;;-146.02;50.92
57000;BME280;42891;50.006;21.964;2023-04-27T01:35:55;50826.38;;;-146.02;50.81
57000;BME280;42891;50.006;21.964;2023-04-27T01:39:55;50852.41;;;-146.02;51.09
57000;BME280;42891;50.006;21.964;2023-04-27T01:43:56;50900.50;;;-146.02;51.09
57000;BME280;42891;50.006;21.964;2023-04-27T01:47:56;50904.50;;;-146.02;50.83
57000;BME280;42891;50.006;21.964;2023-04-27T01:51:56;50906.50;;;-146.02;50.88
57000;BME280;42891;50.006;21.964;2023-04-27T01:55:57;50870.44;;;-146.02;51.08
57000;BME280;42891;50.006;21.964;2023-04-27T01:59:58;50864.44;;;-146.02;51.00
57000;BME280;42891;50.006;21.964;2023-04-27T02:03:59;50892.47;;;-146.02;50.94
57000;BME280;42891;50.006;21.964;2023-04-27T02:07:59;50932.56;;;-146.02;50.79
57000;BME280;42891;50.006;21.964;2023-04-27T02:12:00;50926.53;;;-146.02;50.83
57000;BME280;42891;50.006;21.964;2023-04-27T02:16:01;50884.47;;;-146.02;51.13
57000;BME280;42891;50.006;21.964;2023-04-27T02:20:04;50880.47;;;-146.02;50.63
57000;BME280;42891;50.006;21.964;2023-04-27T02:24:09;50898.50;;;-146.02;50.74
57000;BME280;42891;50.006;21.964;2023-04-27T02:28:09;50888.47;;;-146.02;50.76
57000;BME280;42891;50.006;21.964;2023-04-27T02:32:10;50886.47;;;-146.02;50.69
57000;BME280;42891;50.006;21.964;2023-04-27T02:36:10;50878.47;;;-146.02;50.97
57000;BME280;42891;50.006;21.964;2023-04-27T02:40:11;50892.47;;;-146.02;50.94
57000;BME280;42891;50.006;21.964;2023-04-27T02:44:11;50870.44;;;-146.02;51.05
57000;BME280;42891;50.006;21.964;2023-04-27T02:48:12;50872.44;;;-146.02;50.91
57000;BME280;42891;50.006;21.964;2023-04-27T02:52:12;50880.47;;;-146.02;50.94
57000;BME280;42891;50.006;21.964;2023-04-27T02:56:12;50926.53;;;-146.02;51.30
57000;BME280;42891;50.006;21.964;2023-04-27T03:00:13;50874.44;;;-146.02;51.11
57000;BME280;42891;50.006;21.964;2023-04-27T03:04:14;50876.44;;;-146.02;51.03
57000;BME280;42891;50.006;21.964;2023-04-27T03:08:15;50854.41;;;-146.02;51.30
57000;BME280;42891;50.006;21.964;2023-04-27T03:12:15;50900.50;;;-146.02;51.30
57000;BME280;42891;50.006;21.964;2023-04-27T03:16:16;50888.47;;;-146.02;51.01
57000;BME280;42891;50.006;21.964;2023-04-27T03:20:16;50892.47;;;-146.02;51.42
57000;BME280;42891;50.006;21.964;2023-04-27T03:24:17;50850.41;;;-146.02;50.91
57000;BME280;42891;50.006;21.964;2023-04-27T03:28:17;50886.47;;;-146.02;50.91
57000;BME280;42891;50.006;21.964;2023-04-27T03:32:18;50876.44;;;-146.02;51.03
57000;BME280;42891;50.006;21.964;2023-04-27T03:36:18;50874.44;;;-146.02;50.92
57000;BME280;42891;50.006;21.964;2023-04-27T03:40:18;50886.47;;;-146.02;51.16
57000;BME280;42891;50.006;21.964;2023-04-27T03:44:19;50874.44;;;-146.02;51.05
57000;BME280;42891;50.006;21.964;2023-04-27T03:48:19;50882.47;;;-146.02;50.95
57000;BME280;42891;50.006;21.964;2023-04-27T03:52:20;50916.53;;;-146.02;50.86
57000;BME280;42891;50.006;21.964;2023-04-27T03:56:20;50884.47;;;-146.02;50.67
57000;BME280;42891;50.006;21.964;2023-04-27T04:00:20;50882.47;;;-146.02;50.69
57000;BME280;42891;50.006;21.964;2023-04-27T04:04:21;50920.53;;;-146.02;50.64
57000;BME280;42891;50.006;21.964;2023-04-27T04:08:21;50884.47;;;-146.02;51.09
57000;BME280;42891;50.006;21.964;2023-04-27T04:12:22;50886.47;;;-146.02;50.76
57000;BME280;42891;50.006;21.964;2023-04-27T04:16:22;50874.44;;;-146.02;51.04
57000;BME280;42891;50.006;21.964;2023-04-27T04:20:22;50886.47;;;-146.02;51.30
57000;BME280;42891;50.006;21.964;2023-04-27T04:24:23;50856.41;;;-146.02;51.36
57000;BME280;42891;50.006;21.964;2023-04-27T04:28:24;50890.47;;;-146.02;51.75
57000;BME280;42891;50.006;21.964;2023-04-27T04:32:25;50848.41;;;-146.02;52.30
57000;BME280;42891;50.006;21.964;2023-04-27T04:36:28;50868.44;;;-146.02;52.40
57000;BME280;42891;50.006;21.964;2023-04-27T04:40:30;50882.47;;;-146.02;52.76
57000;BME280;42891;50.006;21.964;2023-04-27T04:44:30;50872.44;;;-146.02;52.40
57000;BME280;42891;50.006;21.964;2023-04-27T04:48:31;50878.47;;;-146.02;51.96
57000;BME280;42891;50.006;21.964;2023-04-27T04:52:32;50906.50;;;-146.02;51.91
57000;BME280;42891;50.006;21.964;2023-04-27T04:56:32;50878.47;;;-146.02;52.09
57000;BME280;42891;50.006;21.964;2023-04-27T05:00:32;50922.53;;;-146.02;51.86
57000;BME280;42891;50.006;21.964;2023-04-27T05:04:33;50884.47;;;-146.02;52.81
57000;BME280;42891;50.006;21.964;2023-04-27T05:08:33;50902.50;;;-146.02;51.86
57000;BME280;42891;50.006;21.964;2023-04-27T05:12:33;50900.50;;;-146.02;51.88
57000;BME280;42891;50.006;21.964;2023-04-27T05:16:34;50916.53;;;-146.02;51.53
57000;BME280;42891;50.006;21.964;2023-04-27T05:20:36;50898.50;;;-146.02;51.76
57000;BME280;42891;50.006;21.964;2023-04-27T05:24:36;50896.50;;;-146.02;51.65
57000;BME280;42891;50.006;21.964;2023-04-27T05:28:37;50918.53;;;-146.02;50.34
57000;BME280;42891;50.006;21.964;2023-04-27T05:32:37;50910.53;;;-146.02;49.96
57000;BME280;42891;50.006;21.964;2023-04-27T05:36:38;50886.47;;;-146.02;49.82
57000;BME280;42891;50.006;21.964;2023-04-27T05:40:39;50882.47;;;-146.02;49.74
57000;BME280;42891;50.006;21.964;2023-04-27T05:44:39;50874.44;;;-146.02;49.66
57000;BME280;42891;50.006;21.964;2023-04-27T05:48:39;50852.41;;;-146.02;49.93
57000;BME280;42891;50.006;21.964;2023-04-27T05:52:40;50884.47;;;-146.02;49.22
57000;BME280;42891;50.006;21.964;2023-04-27T05:56:41;50882.47;;;-146.02;49.37
57000;BME280;42891;50.006;21.964;2023-04-27T06:00:41;50882.47;;;-146.02;49.54
57000;BME280;42891;50.006;21.964;2023-04-27T06:04:43;50894.50;;;-146.02;49.49
57000;BME280;42891;50.006;21.964;2023-04-27T06:08:43;50902.50;;;-146.02;50.91
57000;BME280;42891;50.006;21.964;2023-04-27T06:12:43;50892.47;;;-146.02;50.04
57000;BME280;42891;50.006;21.964;2023-04-27T06:16:44;50912.53;;;-146.02;49.46
57000;BME280;42891;50.006;21.964;2023-04-27T06:20:44;50894.50;;;-146.02;49.93
57000;BME280;42891;50.006;21.964;2023-04-27T06:24:46;50888.47;;;-146.02;48.73
57000;BME280;42891;50.006;21.964;2023-04-27T06:28:46;50900.50;;;-146.02;47.99
57000;BME280;42891;50.006;21.964;2023-04-27T06:32:47;50898.50;;;-146.02;49.19
57000;BME280;42891;50.006;21.964;2023-04-27T06:36:47;50902.50;;;-146.02;48.12
57000;BME280;42891;50.006;21.964;2023-04-27T06:40:51;50906.50;;;-146.02;47.99
57000;BME280;42891;50.006;21.964;2023-04-27T06:44:53;50890.47;;;-146.02;47.94
57000;BME280;42891;50.006;21.964;2023-04-27T06:48:54;50882.47;;;-146.02;47.82
57000;BME280;42891;50.006;21.964;2023-04-27T06:52:55;50864.44;;;-146.02;48.67
57000;BME280;42891;50.006;21.964;2023-04-27T06:56:56;50884.47;;;-146.02;48.57
57000;BME280;42891;50.006;21.964;2023-04-27T07:00:56;50904.50;;;-146.02;47.83
57000;BME280;42891;50.006;21.964;2023-04-27T07:04:56;50866.44;;;-146.02;48.73
57000;BME280;42891;50.006;21.964;2023-04-27T07:08:57;50884.47;;;-146.02;48.84
57000;BME280;42891;50.006;21.964;2023-04-27T07:12:58;50892.47;;;-146.02;48.33
57000;BME280;42891;50.006;21.964;2023-04-27T07:16:58;50840.38;;;-146.02;48.50
57000;BME280;42891;50.006;21.964;2023-04-27T07:20:58;50878.47;;;-146.02;47.16
57000;BME280;42891;50.006;21.964;2023-04-27T07:24:59;50882.47;;;-146.02;47.88
57000;BME280;42891;50.006;21.964;2023-04-27T07:28:59;50880.47;;;-146.02;48.11
57000;BME280;42891;50.006;21.964;2023-04-27T07:33:00;50872.44;;;-146.02;47.44
57000;BME280;42891;50.006;21.964;2023-04-27T07:37:00;50864.44;;;-146.02;48.22
57000;BME280;42891;50.006;21.964;2023-04-27T07:41:01;50858.41;;;-146.02;48.43
57000;BME280;42891;50.006;21.964;2023-04-27T07:45:02;50878.47;;;-146.02;48.60
57000;BME280;42891;50.006;21.964;2023-04-27T07:49:02;50896.50;;;-146.02;48.74
57000;BME280;42891;50.006;21.964;2023-04-27T07:53:03;50880.47;;;-146.02;48.88
57000;BME280;42891;50.006;21.964;2023-04-27T07:57:07;50858.41;;;-146.02;48.87
57000;BME280;42891;50.006;21.964;2023-04-27T08:01:09;50896.50;;;-146.02;49.33
57000;BME280;42891;50.006;21.964;2023-04-27T08:05:09;50850.41;;;-146.02;48.21
57000;BME280;42891;50.006;21.964;2023-04-27T08:09:10;50882.47;;;-146.02;47.43
57000;BME280;42891;50.006;21.964;2023-04-27T08:13:10;50870.44;;;-146.02;47.55
57000;BME280;42891;50.006;21.964;2023-04-27T08:17:11;50824.34;;;-146.02;48.14
57000;BME280;42891;50.006;21.964;2023-04-27T08:21:11;50868.44;;;-146.02;48.43
57000;BME280;42891;50.006;21.964;2023-04-27T08:25:11;50904.50;;;-146.02;48.52
57000;BME280;42891;50.006;21.964;2023-04-27T08:29:12;50880.47;;;-146.02;48.59
57000;BME280;42891;50.006;21.964;2023-04-27T08:33:12;50914.53;;;-146.02;45.64
57000;BME280;42891;50.006;21.964;2023-04-27T08:37:13;50890.47;;;-146.02;46.23
57000;BME280;42891;50.006;21.964;2023-04-27T08:41:22;50876.44;;;-146.02;44.08
57000;BME280;42891;50.006;21.964;2023-04-27T08:45:24;50864.44;;;-146.02;43.61
57000;BME280;42891;50.006;21.964;2023-04-27T08:49:24;50880.47;;;-146.02;41.54
57000;BME280;42891;50.006;21.964;2023-04-27T08:53:25;50884.47;;;-146.02;42.20
57000;BME280;42891;50.006;21.964;2023-04-27T08:57:25;50890.47;;;-146.02;41.54
57000;BME280;42891;50.006;21.964;2023-04-27T09:01:26;50846.41;;;-146.02;41.08
57000;BME280;42891;50.006;21.964;2023-04-27T09:05:26;50892.47;;;-146.02;41.95
57000;BME280;42891;50.006;21.964;2023-04-27T09:09:27;50856.41;;;-146.02;40.54
57000;BME280;42891;50.006;21.964;2023-04-27T09:13:37;50834.38;;;-146.02;40.36
57000;BME280;42891;50.006;21.964;2023-04-27T09:17:37;50874.44;;;-146.02;40.12
57000;BME280;42891;50.006;21.964;2023-04-27T09:21:38;50888.47;;;-146.02;38.46
57000;BME280;42891;50.006;21.964;2023-04-27T09:25:38;50868.44;;;-146.02;38.91
57000;BME280;42891;50.006;21.964;2023-04-27T09:29:38;50912.53;;;-146.02;37.79
57000;BME280;42891;50.006;21.964;2023-04-27T09:33:39;50902.50;;;-146.02;37.61
57000;BME280;42891;50.006;21.964;2023-04-27T09:37:39;50880.47;;;-146.02;38.44
57000;BME280;42891;50.006;21.964;2023-04-27T09:41:40;50886.47;;;-146.02;38.15
57000;BME280;42891;50.006;21.964;2023-04-27T09:45:41;50870.44;;;-146.02;37.05
57000;BME280;42891;50.006;21.964;2023-04-27T09:49:42;50882.47;;;-146.02;37.41
57000;BME280;42891;50.006;21.964;2023-04-27T09:53:51;50852.41;;;-146.02;38.03
57000;BME280;42891;50.006;21.964;2023-04-27T10:02:20;50858.41;;;-146.02;37.63
57000;BME280;42891;50.006;21.964;2023-04-27T10:10:48;50850.41;;;-146.02;38.83
57000;BME280;42891;50.006;21.964;2023-04-27T10:18:55;50874.44;;;-146.02;39.44
57000;BME280;42891;50.006;21.964;2023-04-27T10:22:57;50878.47;;;-146.02;38.29
57000;BME280;42891;50.006;21.964;2023-04-27T10:27:02;50846.41;;;-146.02;39.25
57000;BME280;42891;50.006;21.964;2023-04-27T10:31:08;50822.34;;;-146.02;38.46
57000;BME280;42891;50.006;21.964;2023-04-27T10:35:09;50844.41;;;-146.02;37.63
57000;BME280;42891;50.006;21.964;2023-04-27T10:39:16;50852.41;;;-146.02;37.92
57000;BME280;42891;50.006;21.964;2023-04-27T10:43:17;50856.41;;;-146.02;37.75
57000;BME280;42891;50.006;21.964;2023-04-27T10:47:17;50862.44;;;-146.02;37.21
57000;BME280;42891;50.006;21.964;2023-04-27T10:51:23;50846.41;;;-146.02;37.05
57000;BME280;42891;50.006;21.964;2023-04-27T10:55:25;50830.38;;;-146.02;38.42
57000;BME280;42891;50.006;21.964;2023-04-27T10:59:25;50794.31;;;-146.02;38.34
57000;BME280;42891;50.006;21.964;2023-04-27T11:03:26;50892.47;;;-146.02;38.72
57000;BME280;42891;50.006;21.964;2023-04-27T11:07:27;50844.41;;;-146.02;36.46
57000;BME280;42891;50.006;21.964;2023-04-27T11:11:28;50822.34;;;-146.02;37.36
57000;BME280;42891;50.006;21.964;2023-04-27T11:15:28;50886.47;;;-146.02;36.28
57000;BME280;42891;50.006;21.964;2023-04-27T11:19:29;50874.44;;;-146.02;35.82
57000;BME280;42891;50.006;21.964;2023-04-27T11:23:30;50810.34;;;-146.02;36.11
57000;BME280;42891;50.006;21.964;2023-04-27T11:27:40;50846.41;;;-146.02;36.01
57000;BME280;42891;50.006;21.964;2023-04-27T11:31:46;50850.41;;;-146.02;36.29
57000;BME280;42891;50.006;21.964;2023-04-27T11:35:48;50836.38;;;-146.02;36.27
57000;BME280;42891;50.006;21.964;2023-04-27T11:39:49;50854.41;;;-146.02;36.77
57000;BME280;42891;50.006;21.964;2023-04-27T11:43:50;50840.38;;;-146.02;37.01
57000;BME280;42891;50.006;21.964;2023-04-27T11:47:50;50850.41;;;-146.02;38.09
57000;BME280;42891;50.006;21.964;2023-04-27T11:51:50;50832.38;;;-146.02;37.87
57000;BME280;42891;50.006;21.964;2023-04-27T11:55:51;50836.38;;;-146.02;36.08
57000;BME280;42891;50.006;21.964;2023-04-27T11:59:52;50832.38;;;-146.02;34.54
57000;BME280;42891;50.006;21.964;2023-04-27T12:03:52;50830.38;;;-146.02;34.79
57000;BME280;42891;50.006;21.964;2023-04-27T12:07:53;50862.44;;;-146.02;34.42
57000;BME280;42891;50.006;21.964;2023-04-27T12:11:53;50818.34;;;-146.02;34.81
57000;BME280;42891;50.006;21.964;2023-04-27T12:15:54;50810.34;;;-146.02;35.69
57000;BME280;42891;50.006;21.964;2023-04-27T12:19:54;50844.41;;;-146.02;35.34
57000;BME280;42891;50.006;21.964;2023-04-27T12:23:55;50854.41;;;-146.02;35.62
57000;BME280;42891;50.006;21.964;2023-04-27T12:27:55;50834.38;;;-146.02;35.44
57000;BME280;42891;50.006;21.964;2023-04-27T12:31:57;50830.38;;;-146.02;35.48
57000;BME280;42891;50.006;21.964;2023-04-27T12:35:58;50820.34;;;-146.02;36.36
57000;BME280;42891;50.006;21.964;2023-04-27T12:39:58;50830.38;;;-146.02;34.96
57000;BME280;42891;50.006;21.964;2023-04-27T12:43:59;50840.38;;;-146.02;34.02
57000;BME280;42891;50.006;21.964;2023-04-27T12:47:59;50842.38;;;-146.02;35.56
57000;BME280;42891;50.006;21.964;2023-04-27T12:51:59;50852.41;;;-146.02;35.47
57000;BME280;42891;50.006;21.964;2023-04-27T12:56:01;50824.34;;;-146.02;37.01
57000;BME280;42891;50.006;21.964;2023-04-27T13:00:01;50826.38;;;-146.02;37.03
57000;BME280;42891;50.006;21.964;2023-04-27T13:04:04;50840.38;;;-146.02;38.32
57000;BME280;42891;50.006;21.964;2023-04-27T13:08:05;50820.34;;;-146.02;37.84
57000;BME280;42891;50.006;21.964;2023-04-27T13:12:05;50836.38;;;-146.02;37.26
57000;BME280;42891;50.006;21.964;2023-04-27T13:16:06;50818.34;;;-146.02;37.26
57000;BME280;42891;50.006;21.964;2023-04-27T13:20:07;50832.38;;;-146.02;36.92
57000;BME280;42891;50.006;21.964;2023-04-27T13:24:08;50846.41;;;-146.02;37.13
57000;BME280;42891;50.006;21.964;2023-04-27T13:28:08;50840.38;;;-146.02;37.92
57000;BME280;42891;50.006;21.964;2023-04-27T13:32:08;50814.34;;;-146.02;37.21
57000;BME280;42891;50.006;21.964;2023-04-27T13:36:10;50834.38;;;-146.02;36.98
57000;BME280;42891;50.006;21.964;2023-04-27T13:40:11;50828.38;;;-146.02;37.14
57000;BME280;42891;50.006;21.964;2023-04-27T13:44:11;50874.44;;;-146.02;36.68
57000;BME280;42891;50.006;21.964;2023-04-27T13:48:12;50860.44;;;-146.02;37.75
57000;BME280;42891;50.006;21.964;2023-04-27T13:52:12;50852.41;;;-146.02;37.58
57000;BME280;42891;50.006;21.964;2023-04-27T13:56:13;50804.31;;;-146.02;37.83
57000;BME280;42891;50.006;21.964;2023-04-27T14:00:13;50864.44;;;-146.02;36.63
57000;BME280;42891;50.006;21.964;2023-04-27T14:04:14;50868.44;;;-146.02;36.76
57000;BME280;42891;50.006;21.964;2023-04-27T14:08:14;50800.31;;;-146.02;37.18
57000;BME280;42891;50.006;21.964;2023-04-27T14:12:15;50872.44;;;-146.02;37.86
57000;BME280;42891;50.006;21.964;2023-04-27T14:16:15;50824.34;;;-146.02;37.00
57000;BME280;42891;50.006;21.964;2023-04-27T14:20:16;50848.41;;;-146.02;36.47
57000;BME280;42891;50.006;21.964;2023-04-27T14:24:16;50804.31;;;-146.02;36.18
57000;BME280;42891;50.006;21.964;2023-04-27T14:28:17;50860.44;;;-146.02;34.99
57000;BME280;42891;50.006;21.964;2023-04-27T14:32:17;50802.31;;;-146.02;34.86
57000;BME280;42891;50.006;21.964;2023-04-27T14:36:18;50822.34;;;-146.02;33.38
57000;BME280;42891;50.006;21.964;2023-04-27T14:40:18;50830.38;;;-146.02;34.48
57000;BME280;42891;50.006;21.964;2023-04-27T14:44:19;50834.38;;;-146.02;34.42
57000;BME280;42891;50.006;21.964;2023-04-27T14:48:19;50824.34;;;-146.02;34.20
57000;BME280;42891;50.006;21.964;2023-04-27T14:52:20;50820.34;;;-146.02;34.62
57000;BME280;42891;50.006;21.964;2023-04-27T14:56:21;50830.38;;;-146.02;35.05
57000;BME280;42891;50.006;21.964;2023-04-27T15:00:23;50826.38;;;-146.02;35.46
57000;BME280;42891;50.006;21.964;2023-04-27T15:04:23;50814.34;;;-146.02;35.83
57000;BME280;42891;50.006;21.964;2023-04-27T15:08:24;50770.25;;;-146.02;35.73
57000;BME280;42891;50.006;21.964;2023-04-27T15:12:24;50840.38;;;-146.02;35.67
57000;BME280;42891;50.006;21.964;2023-04-27T15:16:24;50828.38;;;-146.02;35.55
57000;BME280;42891;50.006;21.964;2023-04-27T15:20:25;50798.31;;;-146.02;35.79
57000;BME280;42891;50.006;21.964;2023-04-27T15:24:28;50824.34;;;-146.02;35.90
57000;BME280;42891;50.006;21.964;2023-04-27T15:28:29;50824.34;;;-146.02;35.38
57000;BME280;42891;50.006;21.964;2023-04-27T15:32:30;50828.38;;;-146.02;35.34
57000;BME280;42891;50.006;21.964;2023-04-27T15:36:30;50800.31;;;-146.02;35.85
57000;BME280;42891;50.006;21.964;2023-04-27T15:40:32;50812.34;;;-146.02;35.97
57000;BME280;42891;50.006;21.964;2023-04-27T15:44:32;50812.34;;;-146.02;35.89
57000;BME280;42891;50.006;21.964;2023-04-27T15:48:33;50800.31;;;-146.02;36.38
57000;BME280;42891;50.006;21.964;2023-04-27T15:52:34;50774.28;;;-146.02;36.79
57000;BME280;42891;50.006;21.964;2023-04-27T15:56:34;50820.34;;;-146.02;36.94
57000;BME280;42891;50.006;21.964;2023-04-27T16:00:35;50842.38;;;-146.02;37.32
57000;BME280;42891;50.006;21.964;2023-04-27T16:04:35;50816.34;;;-146.02;37.04
57000;BME280;42891;50.006;21.964;2023-04-27T16:08:36;50862.44;;;-146.02;36.04
57000;BME280;42891;50.006;21.964;2023-04-27T16:12:36;50834.38;;;-146.02;36.70
57000;BME280;42891;50.006;21.964;2023-04-27T16:16:37;50870.44;;;-146.02;36.23
57000;BME280;42891;50.006;21.964;2023-04-27T16:20:37;50826.38;;;-146.02;36.68
57000;BME280;42891;50.006;21.964;2023-04-27T16:24:38;50782.28;;;-146.02;37.01
57000;BME280;42891;50.006;21.964;2023-04-27T16:28:38;50874.44;;;-146.02;37.14
57000;BME280;42891;50.006;21.964;2023-04-27T16:32:39;50828.38;;;-146.02;37.71
57000;BME280;42891;50.006;21.964;2023-04-27T16:36:39;50862.44;;;-146.02;38.01
57000;BME280;42891;50.006;21.964;2023-04-27T16:40:40;50834.38;;;-146.02;38.46
57000;BME280;42891;50.006;21.964;2023-04-27T16:44:40;50832.38;;;-146.02;38.46
57000;BME280;42891;50.006;21.964;2023-04-27T16:48:40;50822.34;;;-146.02;38.16
57000;BME280;42891;50.006;21.964;2023-04-27T16:52:41;50846.41;;;-146.02;38.43
57000;BME280;42891;50.006;21.964;2023-04-27T16:56:41;50830.38;;;-146.02;38.43
57000;BME280;42891;50.006;21.964;2023-04-27T17:00:42;50820.34;;;-146.02;38.13
57000;BME280;42891;50.006;21.964;2023-04-27T17:04:42;50814.34;;;-146.02;38.28
57000;BME280;42891;50.006;21.964;2023-04-27T17:08:43;50842.38;;;-146.02;38.37
57000;BME280;42891;50.006;21.964;2023-04-27T17:12:43;50818.34;;;-146.02;38.74
57000;BME280;42891;50.006;21.964;2023-04-27T17:16:44;50822.34;;;-146.02;38.93
57000;BME280;42891;50.006;21.964;2023-04-27T17:20:45;50836.38;;;-146.02;39.27
57000;BME280;42891;50.006;21.964;2023-04-27T17:24:45;50824.34;;;-146.02;39.54
57000;BME280;42891;50.006;21.964;2023-04-27T17:28:46;50832.38;;;-146.02;39.46
57000;BME280;42891;50.006;21.964;2023-04-27T17:32:47;50882.47;;;-146.02;39.84
57000;BME280;42891;50.006;21.964;2023-04-27T17:36:48;50850.41;;;-146.02;40.11
57000;BME280;42891;50.006;21.964;2023-04-27T17:40:48;50864.44;;;-146.02;40.13
57000;BME280;42891;50.006;21.964;2023-04-27T17:44:48;50816.34;;;-146.02;40.12
57000;BME280;42891;50.006;21.964;2023-04-27T17:48:49;50856.41;;;-146.02;41.07
57000;BME280;42891;50.006;21.964;2023-04-27T17:52:49;50848.41;;;-146.02;41.11
57000;BME280;42891;50.006;21.964;2023-04-27T17:56:50;50848.41;;;-146.02;41.46
57000;BME280;42891;50.006;21.964;2023-04-27T18:00:50;50802.31;;;-146.02;41.54
57000;BME280;42891;50.006;21.964;2023-04-27T18:04:51;50862.44;;;-146.02;41.03
57000;BME280;42891;50.006;21.964;2023-04-27T18:08:52;50826.38;;;-146.02;41.32
57000;BME280;42891;50.006;21.964;2023-04-27T18:12:52;50822.34;;;-146.02;41.20
57000;BME280;42891;50.006;21.964;2023-04-27T18:16:52;50840.38;;;-146.02;41.26
57000;BME280;42891;50.006;21.964;2023-04-27T18:20:53;50820.34;;;-146.02;41.91
57000;BME280;42891;50.006;21.964;2023-04-27T18:24:54;50872.44;;;-146.02;41.88
57000;BME280;42891;50.006;21.964;2023-04-27T18:28:54;50804.31;;;-146.02;42.00
57000;BME280;42891;50.006;21.964;2023-04-27T18:32:55;50834.38;;;-146.02;42.14
57000;BME280;42891;50.006;21.964;2023-04-27T18:36:58;50858.41;;;-146.02;42.57
57000;BME280;42891;50.006;21.964;2023-04-27T18:40:59;50868.44;;;-146.02;43.21
57000;BME280;42891;50.006;21.964;2023-04-27T18:44:59;50818.34;;;-146.02;43.02
57000;BME280;42891;50.006;21.964;2023-04-27T18:49:00;50834.38;;;-146.02;43.46
57000;BME280;42891;50.006;21.964;2023-04-27T18:53:01;50858.41;;;-146.02;43.55
57000;BME280;42891;50.006;21.964;2023-04-27T18:57:04;50822.34;;;-146.02;43.74
57000;BME280;42891;50.006;21.964;2023-04-27T19:01:05;50854.41;;;-146.02;43.82
57000;BME280;42891;50.006;21.964;2023-04-27T19:05:15;50840.38;;;-146.02;44.13
57000;BME280;42891;50.006;21.964;2023-04-27T19:09:15;50840.38;;;-146.02;44.68
57000;BME280;42891;50.006;21.964;2023-04-27T19:13:17;50826.38;;;-146.02;44.69
57000;BME280;42891;50.006;21.964;2023-04-27T19:17:17;50844.41;;;-146.02;45.32
57000;BME280;42891;50.006;21.964;2023-04-27T19:21:17;50824.34;;;-146.02;45.48
57000;BME280;42891;50.006;21.964;2023-04-27T19:25:18;50824.34;;;-146.02;45.43
57000;BME280;42891;50.006;21.964;2023-04-27T19:29:22;50820.34;;;-146.02;45.75
57000;BME280;42891;50.006;21.964;2023-04-27T19:33:23;50846.41;;;-146.02;45.62
57000;BME280;42891;50.006;21.964;2023-04-27T19:37:24;50860.44;;;-146.02;46.08
57000;BME280;42891;50.006;21.964;2023-04-27T19:41:25;50866.44;;;-146.02;46.37
57000;BME280;42891;50.006;21.964;2023-04-27T19:45:25;50836.38;;;-146.02;46.45
57000;BME280;42891;50.006;21.964;2023-04-27T19:49:29;50884.47;;;-146.02;46.69
57000;BME280;42891;50.006;21.964;2023-04-27T19:53:31;50852.41;;;-146.02;46.87
57000;BME280;42891;50.006;21.964;2023-04-27T19:57:32;50832.38;;;-146.02;47.06
57000;BME280;42891;50.006;21.964;2023-04-27T20:01:32;50828.38;;;-146.02;47.03
57000;BME280;42891;50.006;21.964;2023-04-27T20:05:36;50860.44;;;-146.02;47.38
57000;BME280;42891;50.006;21.964;2023-04-27T20:09:37;50848.41;;;-146.02;47.31
57000;BME280;42891;50.006;21.964;2023-04-27T20:13:37;50854.41;;;-146.02;47.83
57000;BME280;42891;50.006;21.964;2023-04-27T20:17:37;50840.38;;;-146.02;47.76
57000;BME280;42891;50.006;21.964;2023-04-27T20:21:38;50842.38;;;-146.02;47.94
57000;BME280;42891;50.006;21.964;2023-04-27T20:25:38;50826.38;;;-146.02;47.71
57000;BME280;42891;50.006;21.964;2023-04-27T20:29:39;50842.38;;;-146.02;47.79
57000;BME280;42891;50.006;21.964;2023-04-27T20:33:42;50834.38;;;-146.02;47.88
57000;BME280;42891;50.006;21.964;2023-04-27T20:37:42;50828.38;;;-146.02;48.30
57000;BME280;42891;50.006;21.964;2023-04-27T20:41:42;50844.41;;;-146.02;48.19